CheckWX is a tool to help pilots better visualize weather data.  It is not intended as a substitute for an official pre-flight weather briefing.

11:07:05 UTC

CYLA METAR
Aupaluk Airport
Aupaluk, Canada
Current

23 hours ago

CYLA 241200Z 26004KT 15SM BKN008 BKN024 M03/M05 A3017 RMK SC6SC1 SLP220
Observed
May-24 @ 12:00 UTC
Wind
  • 260° at 4 KTS
Visibility
Flight Rules
IFR
Cloud Levels
  • Broken at 800' AGL
  • Broken at 2,400' AGL
Temperature
-3°C / 27°F
Dewpoint
-5°C / 23°F
Humidity
86%
Altimeter
30.17" Hg
Pressure
1021.72 hPa
Previous

23 hours ago

CYLA 241200Z CCA 26004KT 15SM BKN008 BKN024 M03/M05 A3017 RMK SC6SC1 LAST STFD OBS/251200UTC SLP220
Observed
May-24 @ 12:00 UTC
Wind
  • 260° at 4 KTS
Visibility
Flight Rules
IFR
Cloud Levels
  • Broken at 800' AGL
  • Broken at 2,400' AGL
Temperature
-3°C / 27°F
Dewpoint
-5°C / 23°F
Humidity
86%
Altimeter
30.17" Hg
Pressure
1021.72 hPa